Hlavní strana
METAR-TAF:

METAR-TAF

Letiště :

Dalaman, Turecko

zeměpisná šířka: 36-42N, zeměpisná délka: 028-47E, výška: 7 m

Aktuální stav počasí

Zpráva byla vytvořena před 39 minutami, v 05:50 UTC
Východoseverovýchodní vítr 5 kt
Teplota 10°C
Vlhkost vzduchu 82%
Tlak 1024 hPa
Viditelnost 10 km a více
Žádná oblačnost pod 1500 m, nevyskytují se cumulonimby.

METAR: LTBS 160550Z 06005KT CAVOK 10/07 Q1024 NOSIG RMK RWY19 34009KT

Čas: 09:29 (06:29 UTC)

Předpověď počasí

Zpráva byla vytvořena před 1 hodinou a 49 minutami, v 04:40 UTC
Předpověď platná od 16 v 06 UTC do 17 v 06 UTC
vítr z různých směrů 2 kt
Viditelnost 10 km a více
Žádná oblačnost pod 1500 m, nevyskytují se cumulonimby.

TAF: LTBS 160440Z 1606/1706 VRB02KT CAVOK

Stav a předpovědi počasí z více než 4 000 letišť (zprávy METAR a TAF).

Červené a žluté tečky na mapě představují dostupné meteorologické stanice.

Když kurzor umístíte na tečku, zobrazí se název stanice.

Pak kliknutím zobrazíte stav a předpověď počasí.

Chcete-li změnit mapu, kliknutím na zelené tlačítko se znaménkem +mapu přiblížíte, kliknutím na zelené tlačítko se znaménkem – mapu oddálíte a kliknutím na zelené šipky přejdete na sousední mapy.


METAR-TAF: